sensor_id;sensor_type;location;lat;lon;timestamp;temperature;humidity
5200;DHT22;2619;47.868;11.892;2023-06-22T00:02:16;17.90;99.90
5200;DHT22;2619;47.868;11.892;2023-06-22T00:04:42;18.00;99.90
5200;DHT22;2619;47.868;11.892;2023-06-22T00:07:08;18.00;99.90
5200;DHT22;2619;47.868;11.892;2023-06-22T00:09:34;18.10;99.90
5200;DHT22;2619;47.868;11.892;2023-06-22T00:11:59;18.10;99.90
5200;DHT22;2619;47.868;11.892;2023-06-22T00:14:25;18.10;99.90
5200;DHT22;2619;47.868;11.892;2023-06-22T00:16:50;18.10;99.90
5200;DHT22;2619;47.868;11.892;2023-06-22T00:19:23;18.20;99.90
5200;DHT22;2619;47.868;11.892;2023-06-22T00:21:52;18.20;99.90
5200;DHT22;2619;47.868;11.892;2023-06-22T00:24:21;18.10;99.90
5200;DHT22;2619;47.868;11.892;2023-06-22T00:26:50;18.10;99.90
5200;DHT22;2619;47.868;11.892;2023-06-22T00:29:16;18.00;99.90
5200;DHT22;2619;47.868;11.892;2023-06-22T00:31:42;18.00;99.90
5200;DHT22;2619;47.868;11.892;2023-06-22T00:34:08;17.90;99.90
5200;DHT22;2619;47.868;11.892;2023-06-22T00:36:34;17.90;99.90
5200;DHT22;2619;47.868;11.892;2023-06-22T00:39:00;17.90;99.90
5200;DHT22;2619;47.868;11.892;2023-06-22T00:41:26;17.90;99.90
5200;DHT22;2619;47.868;11.892;2023-06-22T00:43:54;18.00;99.90
5200;DHT22;2619;47.868;11.892;2023-06-22T00:46:20;17.90;99.90
5200;DHT22;2619;47.868;11.892;2023-06-22T00:48:46;17.90;99.90
5200;DHT22;2619;47.868;11.892;2023-06-22T00:51:11;17.80;99.90
5200;DHT22;2619;47.868;11.892;2023-06-22T00:53:37;17.70;99.90
5200;DHT22;2619;47.868;11.892;2023-06-22T00:56:03;17.70;99.90
5200;DHT22;2619;47.868;11.892;2023-06-22T00:58:31;17.70;99.90
5200;DHT22;2619;47.868;11.892;2023-06-22T01:00:56;17.70;99.90
5200;DHT22;2619;47.868;11.892;2023-06-22T01:03:22;17.70;99.90
5200;DHT22;2619;47.868;11.892;2023-06-22T01:05:49;17.60;99.90
5200;DHT22;2619;47.868;11.892;2023-06-22T01:08:42;17.60;99.90
5200;DHT22;2619;47.868;11.892;2023-06-22T01:11:26;17.60;99.90
5200;DHT22;2619;47.868;11.892;2023-06-22T01:16:30;17.50;99.90
5200;DHT22;2619;47.868;11.892;2023-06-22T01:19:00;17.50;99.90
5200;DHT22;2619;47.868;11.892;2023-06-22T01:21:29;17.50;99.90
5200;DHT22;2619;47.868;11.892;2023-06-22T01:26:38;17.60;99.90
5200;DHT22;2619;47.868;11.892;2023-06-22T01:29:08;17.60;99.90
5200;DHT22;2619;47.868;11.892;2023-06-22T01:31:39;17.50;99.90
5200;DHT22;2619;47.868;11.892;2023-06-22T01:34:07;17.60;99.90
5200;DHT22;2619;47.868;11.892;2023-06-22T01:36:34;17.50;99.90
5200;DHT22;2619;47.868;11.892;2023-06-22T01:39:00;17.50;99.90
5200;DHT22;2619;47.868;11.892;2023-06-22T01:41:26;17.40;99.90
5200;DHT22;2619;47.868;11.892;2023-06-22T01:43:53;17.30;99.90
5200;DHT22;2619;47.868;11.892;2023-06-22T01:46:20;17.30;99.90
5200;DHT22;2619;47.868;11.892;2023-06-22T01:48:47;17.20;99.90
5200;DHT22;2619;47.868;11.892;2023-06-22T01:51:13;17.20;99.90
5200;DHT22;2619;47.868;11.892;2023-06-22T01:53:39;17.20;99.90
5200;DHT22;2619;47.868;11.892;2023-06-22T01:56:04;17.20;99.90
5200;DHT22;2619;47.868;11.892;2023-06-22T01:58:31;17.10;99.90
5200;DHT22;2619;47.868;11.892;2023-06-22T02:01:11;17.20;99.90
5200;DHT22;2619;47.868;11.892;2023-06-22T02:03:43;17.10;99.90
5200;DHT22;2619;47.868;11.892;2023-06-22T02:06:33;17.20;99.90
5200;DHT22;2619;47.868;11.892;2023-06-22T02:09:06;17.20;99.90
5200;DHT22;2619;47.868;11.892;2023-06-22T02:11:33;17.20;99.90
5200;DHT22;2619;47.868;11.892;2023-06-22T02:14:00;17.20;99.90
5200;DHT22;2619;47.868;11.892;2023-06-22T02:16:26;17.20;99.90
5200;DHT22;2619;47.868;11.892;2023-06-22T02:18:55;17.20;99.90
5200;DHT22;2619;47.868;11.892;2023-06-22T02:21:22;17.20;99.90
5200;DHT22;2619;47.868;11.892;2023-06-22T02:23:47;17.20;99.90
5200;DHT22;2619;47.868;11.892;2023-06-22T02:26:13;17.10;99.90
5200;DHT22;2619;47.868;11.892;2023-06-22T02:28:39;17.10;99.90
5200;DHT22;2619;47.868;11.892;2023-06-22T02:31:04;17.00;99.90
5200;DHT22;2619;47.868;11.892;2023-06-22T02:33:30;17.00;99.90
5200;DHT22;2619;47.868;11.892;2023-06-22T02:35:56;17.00;99.90
5200;DHT22;2619;47.868;11.892;2023-06-22T02:38:21;17.00;99.90
5200;DHT22;2619;47.868;11.892;2023-06-22T02:40:50;17.00;99.90
5200;DHT22;2619;47.868;11.892;2023-06-22T02:43:15;17.00;99.90
5200;DHT22;2619;47.868;11.892;2023-06-22T02:45:41;17.00;99.90
5200;DHT22;2619;47.868;11.892;2023-06-22T02:48:06;16.90;99.90
5200;DHT22;2619;47.868;11.892;2023-06-22T02:50:32;16.90;99.90
5200;DHT22;2619;47.868;11.892;2023-06-22T02:52:58;16.90;99.90
5200;DHT22;2619;47.868;11.892;2023-06-22T02:55:23;16.80;99.90
5200;DHT22;2619;47.868;11.892;2023-06-22T02:57:49;16.80;99.90
5200;DHT22;2619;47.868;11.892;2023-06-22T03:00:18;16.80;99.90
5200;DHT22;2619;47.868;11.892;2023-06-22T03:02:45;16.70;99.90
5200;DHT22;2619;47.868;11.892;2023-06-22T03:05:12;16.70;99.90
5200;DHT22;2619;47.868;11.892;2023-06-22T03:07:44;16.60;99.90
5200;DHT22;2619;47.868;11.892;2023-06-22T03:10:11;16.60;99.90
5200;DHT22;2619;47.868;11.892;2023-06-22T03:12:40;16.50;99.90
5200;DHT22;2619;47.868;11.892;2023-06-22T03:15:08;16.50;99.90
5200;DHT22;2619;47.868;11.892;2023-06-22T03:17:34;16.50;99.90
5200;DHT22;2619;47.868;11.892;2023-06-22T03:20:00;16.40;99.90
5200;DHT22;2619;47.868;11.892;2023-06-22T03:22:26;16.40;99.90
5200;DHT22;2619;47.868;11.892;2023-06-22T03:24:52;16.40;99.90
5200;DHT22;2619;47.868;11.892;2023-06-22T03:27:17;16.40;99.90
5200;DHT22;2619;47.868;11.892;2023-06-22T03:29:44;16.40;99.90
5200;DHT22;2619;47.868;11.892;2023-06-22T03:32:10;16.40;99.90
5200;DHT22;2619;47.868;11.892;2023-06-22T03:34:35;16.40;99.90
5200;DHT22;2619;47.868;11.892;2023-06-22T03:37:01;16.40;99.90
5200;DHT22;2619;47.868;11.892;2023-06-22T03:39:27;16.50;99.90
5200;DHT22;2619;47.868;11.892;2023-06-22T03:41:52;16.50;99.90
5200;DHT22;2619;47.868;11.892;2023-06-22T03:44:18;16.60;99.90
5200;DHT22;2619;47.868;11.892;2023-06-22T03:46:44;16.60;99.90
5200;DHT22;2619;47.868;11.892;2023-06-22T03:49:09;16.70;99.90
5200;DHT22;2619;47.868;11.892;2023-06-22T03:51:35;16.80;99.90
5200;DHT22;2619;47.868;11.892;2023-06-22T03:54:00;16.80;99.90
5200;DHT22;2619;47.868;11.892;2023-06-22T03:56:26;16.90;99.90
5200;DHT22;2619;47.868;11.892;2023-06-22T03:58:51;16.90;99.90
5200;DHT22;2619;47.868;11.892;2023-06-22T04:01:17;17.00;99.90
5200;DHT22;2619;47.868;11.892;2023-06-22T04:03:43;17.00;99.90
5200;DHT22;2619;47.868;11.892;2023-06-22T04:06:08;17.10;99.90
5200;DHT22;2619;47.868;11.892;2023-06-22T04:08:34;17.20;99.90
5200;DHT22;2619;47.868;11.892;2023-06-22T04:11:00;17.20;99.90
5200;DHT22;2619;47.868;11.892;2023-06-22T04:13:26;17.40;99.90
5200;DHT22;2619;47.868;11.892;2023-06-22T04:15:51;17.40;99.90
5200;DHT22;2619;47.868;11.892;2023-06-22T04:18:17;17.60;99.90
5200;DHT22;2619;47.868;11.892;2023-06-22T04:20:42;17.70;99.90
5200;DHT22;2619;47.868;11.892;2023-06-22T04:23:10;17.70;99.90
5200;DHT22;2619;47.868;11.892;2023-06-22T04:25:35;17.90;99.90
5200;DHT22;2619;47.868;11.892;2023-06-22T04:31:23;18.70;99.90
5200;DHT22;2619;47.868;11.892;2023-06-22T04:33:52;19.30;99.90
5200;DHT22;2619;47.868;11.892;2023-06-22T04:36:18;19.80;99.90
5200;DHT22;2619;47.868;11.892;2023-06-22T04:38:44;20.30;99.90
5200;DHT22;2619;47.868;11.892;2023-06-22T04:41:10;20.80;99.90
5200;DHT22;2619;47.868;11.892;2023-06-22T04:43:39;21.20;99.90
5200;DHT22;2619;47.868;11.892;2023-06-22T04:46:05;21.40;99.90
5200;DHT22;2619;47.868;11.892;2023-06-22T04:48:31;21.80;99.90
5200;DHT22;2619;47.868;11.892;2023-06-22T04:50:59;22.10;99.90
5200;DHT22;2619;47.868;11.892;2023-06-22T04:53:28;22.40;99.90
5200;DHT22;2619;47.868;11.892;2023-06-22T04:55:55;22.70;99.90
5200;DHT22;2619;47.868;11.892;2023-06-22T04:58:21;22.90;99.90
5200;DHT22;2619;47.868;11.892;2023-06-22T05:00:47;23.20;99.90
5200;DHT22;2619;47.868;11.892;2023-06-22T05:03:12;23.70;99.90
5200;DHT22;2619;47.868;11.892;2023-06-22T05:05:38;24.00;99.90
5200;DHT22;2619;47.868;11.892;2023-06-22T05:08:04;24.20;99.90
5200;DHT22;2619;47.868;11.892;2023-06-22T05:10:32;24.20;99.90
5200;DHT22;2619;47.868;11.892;2023-06-22T05:12:58;24.30;99.90
5200;DHT22;2619;47.868;11.892;2023-06-22T05:15:23;24.50;99.90
5200;DHT22;2619;47.868;11.892;2023-06-22T05:17:53;24.50;99.90
5200;DHT22;2619;47.868;11.892;2023-06-22T05:20:19;24.50;99.90
5200;DHT22;2619;47.868;11.892;2023-06-22T05:22:44;24.60;99.90
5200;DHT22;2619;47.868;11.892;2023-06-22T05:25:11;24.50;99.90
5200;DHT22;2619;47.868;11.892;2023-06-22T05:27:37;24.30;99.90
5200;DHT22;2619;47.868;11.892;2023-06-22T05:30:06;24.70;99.90
5200;DHT22;2619;47.868;11.892;2023-06-22T05:32:32;24.80;99.90
5200;DHT22;2619;47.868;11.892;2023-06-22T05:34:59;25.00;99.90
5200;DHT22;2619;47.868;11.892;2023-06-22T05:37:24;25.20;99.90
5200;DHT22;2619;47.868;11.892;2023-06-22T05:39:50;25.10;99.90
5200;DHT22;2619;47.868;11.892;2023-06-22T05:42:16;25.10;99.90
5200;DHT22;2619;47.868;11.892;2023-06-22T05:44:41;25.20;99.90
5200;DHT22;2619;47.868;11.892;2023-06-22T05:47:07;25.20;99.90
5200;DHT22;2619;47.868;11.892;2023-06-22T05:49:32;25.60;99.90
5200;DHT22;2619;47.868;11.892;2023-06-22T05:51:59;25.60;99.90
5200;DHT22;2619;47.868;11.892;2023-06-22T05:54:25;25.50;99.90
5200;DHT22;2619;47.868;11.892;2023-06-22T05:56:51;25.60;99.90
5200;DHT22;2619;47.868;11.892;2023-06-22T05:59:17;25.50;99.90
5200;DHT22;2619;47.868;11.892;2023-06-22T06:01:42;25.20;99.90
5200;DHT22;2619;47.868;11.892;2023-06-22T06:04:08;25.20;99.90
5200;DHT22;2619;47.868;11.892;2023-06-22T06:06:34;25.40;99.90
5200;DHT22;2619;47.868;11.892;2023-06-22T06:09:03;25.80;99.90
5200;DHT22;2619;47.868;11.892;2023-06-22T06:11:29;25.90;99.90
5200;DHT22;2619;47.868;11.892;2023-06-22T06:13:54;26.30;99.90
5200;DHT22;2619;47.868;11.892;2023-06-22T06:16:20;27.10;99.90
5200;DHT22;2619;47.868;11.892;2023-06-22T06:18:46;27.40;99.90
5200;DHT22;2619;47.868;11.892;2023-06-22T06:21:11;27.70;99.90
5200;DHT22;2619;47.868;11.892;2023-06-22T06:23:37;27.80;99.90
5200;DHT22;2619;47.868;11.892;2023-06-22T06:26:02;27.80;99.90
5200;DHT22;2619;47.868;11.892;2023-06-22T06:28:32;27.70;99.90
5200;DHT22;2619;47.868;11.892;2023-06-22T06:30:58;27.50;99.90
5200;DHT22;2619;47.868;11.892;2023-06-22T06:33:24;27.50;99.90
5200;DHT22;2619;47.868;11.892;2023-06-22T06:35:50;27.40;99.90
5200;DHT22;2619;47.868;11.892;2023-06-22T06:38:15;27.60;99.90
5200;DHT22;2619;47.868;11.892;2023-06-22T06:40:41;28.00;99.90
5200;DHT22;2619;47.868;11.892;2023-06-22T06:43:06;28.20;99.90
5200;DHT22;2619;47.868;11.892;2023-06-22T06:45:32;28.40;99.90
5200;DHT22;2619;47.868;11.892;2023-06-22T06:47:59;28.00;99.90
5200;DHT22;2619;47.868;11.892;2023-06-22T06:50:25;28.10;99.90
5200;DHT22;2619;47.868;11.892;2023-06-22T06:52:51;28.10;99.90
5200;DHT22;2619;47.868;11.892;2023-06-22T06:55:17;28.70;99.90
5200;DHT22;2619;47.868;11.892;2023-06-22T06:57:43;28.80;99.90
5200;DHT22;2619;47.868;11.892;2023-06-22T07:00:11;28.50;99.90
5200;DHT22;2619;47.868;11.892;2023-06-22T07:02:39;28.80;99.90
5200;DHT22;2619;47.868;11.892;2023-06-22T07:05:09;29.30;99.90
5200;DHT22;2619;47.868;11.892;2023-06-22T07:07:35;28.20;99.90
5200;DHT22;2619;47.868;11.892;2023-06-22T07:10:01;28.60;99.90
5200;DHT22;2619;47.868;11.892;2023-06-22T07:12:27;28.70;99.90
5200;DHT22;2619;47.868;11.892;2023-06-22T07:14:53;27.90;99.90
5200;DHT22;2619;47.868;11.892;2023-06-22T07:17:18;28.10;99.90
5200;DHT22;2619;47.868;11.892;2023-06-22T07:19:44;28.40;99.90
5200;DHT22;2619;47.868;11.892;2023-06-22T07:22:09;28.10;99.90
5200;DHT22;2619;47.868;11.892;2023-06-22T07:24:35;28.50;99.90
5200;DHT22;2619;47.868;11.892;2023-06-22T07:27:00;29.00;99.90
5200;DHT22;2619;47.868;11.892;2023-06-22T07:29:27;28.80;99.90
5200;DHT22;2619;47.868;11.892;2023-06-22T07:31:53;28.70;99.90
5200;DHT22;2619;47.868;11.892;2023-06-22T07:34:19;28.80;99.90
5200;DHT22;2619;47.868;11.892;2023-06-22T07:36:45;28.90;99.90
5200;DHT22;2619;47.868;11.892;2023-06-22T07:39:11;28.80;99.90
5200;DHT22;2619;47.868;11.892;2023-06-22T07:41:39;28.00;99.90
5200;DHT22;2619;47.868;11.892;2023-06-22T07:44:05;27.60;99.90
5200;DHT22;2619;47.868;11.892;2023-06-22T07:46:31;27.60;99.90
5200;DHT22;2619;47.868;11.892;2023-06-22T07:48:57;27.50;99.90
5200;DHT22;2619;47.868;11.892;2023-06-22T07:51:23;27.40;99.90
5200;DHT22;2619;47.868;11.892;2023-06-22T07:53:49;26.90;99.90
5200;DHT22;2619;47.868;11.892;2023-06-22T07:56:15;27.10;99.90
5200;DHT22;2619;47.868;11.892;2023-06-22T07:58:45;27.20;99.90
5200;DHT22;2619;47.868;11.892;2023-06-22T08:01:11;27.10;99.90
5200;DHT22;2619;47.868;11.892;2023-06-22T08:03:37;27.20;99.90
5200;DHT22;2619;47.868;11.892;2023-06-22T08:06:03;28.00;99.90
5200;DHT22;2619;47.868;11.892;2023-06-22T08:08:28;28.30;99.90
5200;DHT22;2619;47.868;11.892;2023-06-22T08:10:54;27.80;99.90
5200;DHT22;2619;47.868;11.892;2023-06-22T08:13:20;27.90;99.90
5200;DHT22;2619;47.868;11.892;2023-06-22T08:15:45;28.00;99.90
5200;DHT22;2619;47.868;11.892;2023-06-22T08:18:11;28.60;99.90
5200;DHT22;2619;47.868;11.892;2023-06-22T08:20:36;28.10;99.90
5200;DHT22;2619;47.868;11.892;2023-06-22T08:23:02;28.10;99.90
5200;DHT22;2619;47.868;11.892;2023-06-22T08:25:30;28.70;99.90
5200;DHT22;2619;47.868;11.892;2023-06-22T08:27:56;28.70;99.90
5200;DHT22;2619;47.868;11.892;2023-06-22T08:30:22;28.60;99.90
5200;DHT22;2619;47.868;11.892;2023-06-22T08:32:47;28.60;99.90
5200;DHT22;2619;47.868;11.892;2023-06-22T08:35:13;28.80;99.90
5200;DHT22;2619;47.868;11.892;2023-06-22T08:37:39;29.20;99.90
5200;DHT22;2619;47.868;11.892;2023-06-22T08:40:06;29.40;99.90
5200;DHT22;2619;47.868;11.892;2023-06-22T08:42:36;29.50;99.90
5200;DHT22;2619;47.868;11.892;2023-06-22T08:45:02;29.60;99.90
5200;DHT22;2619;47.868;11.892;2023-06-22T08:47:28;29.20;99.90
5200;DHT22;2619;47.868;11.892;2023-06-22T08:49:54;29.50;99.90
5200;DHT22;2619;47.868;11.892;2023-06-22T08:52:20;29.30;99.90
5200;DHT22;2619;47.868;11.892;2023-06-22T08:54:46;29.50;99.90
5200;DHT22;2619;47.868;11.892;2023-06-22T08:57:12;29.70;99.90
5200;DHT22;2619;47.868;11.892;2023-06-22T08:59:38;29.60;99.90
5200;DHT22;2619;47.868;11.892;2023-06-22T09:02:04;29.60;99.90
5200;DHT22;2619;47.868;11.892;2023-06-22T09:04:29;29.90;99.90
5200;DHT22;2619;47.868;11.892;2023-06-22T09:06:55;30.10;99.90
5200;DHT22;2619;47.868;11.892;2023-06-22T09:09:21;30.30;99.90
5200;DHT22;2619;47.868;11.892;2023-06-22T09:11:47;30.30;99.90
5200;DHT22;2619;47.868;11.892;2023-06-22T09:14:12;30.40;99.90
5200;DHT22;2619;47.868;11.892;2023-06-22T09:16:38;30.10;99.90
5200;DHT22;2619;47.868;11.892;2023-06-22T09:19:04;29.70;99.90
5200;DHT22;2619;47.868;11.892;2023-06-22T09:21:29;30.10;99.90
5200;DHT22;2619;47.868;11.892;2023-06-22T09:23:55;30.30;99.90
5200;DHT22;2619;47.868;11.892;2023-06-22T09:26:22;30.00;99.90
5200;DHT22;2619;47.868;11.892;2023-06-22T09:28:49;30.40;99.90
5200;DHT22;2619;47.868;11.892;2023-06-22T09:31:15;30.70;99.90
5200;DHT22;2619;47.868;11.892;2023-06-22T09:33:41;30.60;99.90
5200;DHT22;2619;47.868;11.892;2023-06-22T09:36:07;29.90;99.90
5200;DHT22;2619;47.868;11.892;2023-06-22T09:38:39;29.70;99.90
5200;DHT22;2619;47.868;11.892;2023-06-22T09:41:04;29.90;99.90
5200;DHT22;2619;47.868;11.892;2023-06-22T09:43:32;30.40;99.90
5200;DHT22;2619;47.868;11.892;2023-06-22T09:46:00;30.70;99.90
5200;DHT22;2619;47.868;11.892;2023-06-22T09:48:27;30.10;99.90
5200;DHT22;2619;47.868;11.892;2023-06-22T09:50:52;30.30;99.90
5200;DHT22;2619;47.868;11.892;2023-06-22T09:53:18;30.80;99.90
5200;DHT22;2619;47.868;11.892;2023-06-22T09:55:43;31.20;99.20
5200;DHT22;2619;47.868;11.892;2023-06-22T09:58:09;30.80;99.90
5200;DHT22;2619;47.868;11.892;2023-06-22T10:00:35;31.20;99.90
5200;DHT22;2619;47.868;11.892;2023-06-22T10:03:01;31.50;99.40
5200;DHT22;2619;47.868;11.892;2023-06-22T10:05:26;31.70;99.50
5200;DHT22;2619;47.868;11.892;2023-06-22T10:07:52;31.60;98.20
5200;DHT22;2619;47.868;11.892;2023-06-22T10:10:17;31.60;99.80
5200;DHT22;2619;47.868;11.892;2023-06-22T10:12:47;32.00;98.70
5200;DHT22;2619;47.868;11.892;2023-06-22T10:15:13;32.20;98.50
5200;DHT22;2619;47.868;11.892;2023-06-22T10:17:39;31.60;97.40
5200;DHT22;2619;47.868;11.892;2023-06-22T10:20:06;31.40;98.20
5200;DHT22;2619;47.868;11.892;2023-06-22T10:22:42;31.40;98.50
5200;DHT22;2619;47.868;11.892;2023-06-22T10:25:09;31.40;99.60
5200;DHT22;2619;47.868;11.892;2023-06-22T10:27:35;31.40;98.90
5200;DHT22;2619;47.868;11.892;2023-06-22T10:30:01;31.60;98.80
5200;DHT22;2619;47.868;11.892;2023-06-22T10:32:27;31.60;98.50
5200;DHT22;2619;47.868;11.892;2023-06-22T10:34:54;31.40;99.50
5200;DHT22;2619;47.868;11.892;2023-06-22T10:37:20;31.50;98.20
5200;DHT22;2619;47.868;11.892;2023-06-22T10:39:45;31.80;99.40
5200;DHT22;2619;47.868;11.892;2023-06-22T10:42:12;31.90;98.60
5200;DHT22;2619;47.868;11.892;2023-06-22T10:44:38;31.70;98.00
5200;DHT22;2619;47.868;11.892;2023-06-22T10:47:06;31.60;99.90
5200;DHT22;2619;47.868;11.892;2023-06-22T10:49:32;31.80;98.30
5200;DHT22;2619;47.868;11.892;2023-06-22T10:51:57;31.70;99.10
5200;DHT22;2619;47.868;11.892;2023-06-22T10:54:23;31.60;99.70
5200;DHT22;2619;47.868;11.892;2023-06-22T10:56:48;31.60;98.90
5200;DHT22;2619;47.868;11.892;2023-06-22T10:59:14;31.60;99.10
5200;DHT22;2619;47.868;11.892;2023-06-22T11:01:40;31.50;99.30
5200;DHT22;2619;47.868;11.892;2023-06-22T11:04:05;31.40;98.40
5200;DHT22;2619;47.868;11.892;2023-06-22T11:06:31;31.50;98.90
5200;DHT22;2619;47.868;11.892;2023-06-22T11:08:57;31.40;99.90
5200;DHT22;2619;47.868;11.892;2023-06-22T11:11:25;31.90;99.90
5200;DHT22;2619;47.868;11.892;2023-06-22T11:13:50;32.20;98.80
5200;DHT22;2619;47.868;11.892;2023-06-22T11:16:16;32.50;98.90
5200;DHT22;2619;47.868;11.892;2023-06-22T11:18:41;32.80;98.00
5200;DHT22;2619;47.868;11.892;2023-06-22T11:21:07;33.10;97.50
5200;DHT22;2619;47.868;11.892;2023-06-22T11:23:32;33.40;97.00
5200;DHT22;2619;47.868;11.892;2023-06-22T11:25:58;33.60;96.20
5200;DHT22;2619;47.868;11.892;2023-06-22T11:28:24;34.10;96.60
5200;DHT22;2619;47.868;11.892;2023-06-22T11:30:49;34.10;95.90
5200;DHT22;2619;47.868;11.892;2023-06-22T11:33:15;34.10;96.40
5200;DHT22;2619;47.868;11.892;2023-06-22T11:35:40;34.30;95.00
5200;DHT22;2619;47.868;11.892;2023-06-22T11:38:06;34.60;94.80
5200;DHT22;2619;47.868;11.892;2023-06-22T11:40:33;35.00;93.40
5200;DHT22;2619;47.868;11.892;2023-06-22T11:42:58;35.50;93.00
5200;DHT22;2619;47.868;11.892;2023-06-22T11:45:24;35.40;92.80
5200;DHT22;2619;47.868;11.892;2023-06-22T11:47:49;35.30;93.20
5200;DHT22;2619;47.868;11.892;2023-06-22T11:50:15;35.50;92.40
5200;DHT22;2619;47.868;11.892;2023-06-22T11:52:40;35.70;92.30
5200;DHT22;2619;47.868;11.892;2023-06-22T11:55:06;35.60;92.70
5200;DHT22;2619;47.868;11.892;2023-06-22T11:57:34;35.70;92.30
5200;DHT22;2619;47.868;11.892;2023-06-22T12:00:00;36.00;90.40
5200;DHT22;2619;47.868;11.892;2023-06-22T12:02:26;35.90;90.80
5200;DHT22;2619;47.868;11.892;2023-06-22T12:04:51;35.90;91.70
5200;DHT22;2619;47.868;11.892;2023-06-22T12:07:18;35.40;91.40
5200;DHT22;2619;47.868;11.892;2023-06-22T12:09:44;35.60;90.60
5200;DHT22;2619;47.868;11.892;2023-06-22T12:12:09;35.60;91.10
5200;DHT22;2619;47.868;11.892;2023-06-22T12:14:35;34.80;92.10
5200;DHT22;2619;47.868;11.892;2023-06-22T12:17:01;34.90;91.10
5200;DHT22;2619;47.868;11.892;2023-06-22T12:19:26;35.30;91.70
5200;DHT22;2619;47.868;11.892;2023-06-22T12:21:52;35.50;90.10
5200;DHT22;2619;47.868;11.892;2023-06-22T12:24:18;35.50;89.20
5200;DHT22;2619;47.868;11.892;2023-06-22T12:26:43;35.10;87.80
5200;DHT22;2619;47.868;11.892;2023-06-22T12:29:09;34.50;91.00
5200;DHT22;2619;47.868;11.892;2023-06-22T12:31:36;34.70;90.00
5200;DHT22;2619;47.868;11.892;2023-06-22T12:34:04;35.20;90.40
5200;DHT22;2619;47.868;11.892;2023-06-22T12:36:29;35.30;88.30
5200;DHT22;2619;47.868;11.892;2023-06-22T12:38:55;34.70;90.10
5200;DHT22;2619;47.868;11.892;2023-06-22T12:41:20;34.20;89.50
5200;DHT22;2619;47.868;11.892;2023-06-22T12:43:46;33.90;91.10
5200;DHT22;2619;47.868;11.892;2023-06-22T12:46:12;34.10;90.80
5200;DHT22;2619;47.868;11.892;2023-06-22T12:48:37;33.90;90.90
5200;DHT22;2619;47.868;11.892;2023-06-22T12:51:07;33.70;90.80
5200;DHT22;2619;47.868;11.892;2023-06-22T12:53:33;34.00;89.40
5200;DHT22;2619;47.868;11.892;2023-06-22T12:55:59;34.20;89.10
5200;DHT22;2619;47.868;11.892;2023-06-22T12:58:25;34.60;89.90
5200;DHT22;2619;47.868;11.892;2023-06-22T13:00:50;34.70;88.70
5200;DHT22;2619;47.868;11.892;2023-06-22T13:03:16;34.30;89.10
5200;DHT22;2619;47.868;11.892;2023-06-22T13:05:41;34.40;87.90
5200;DHT22;2619;47.868;11.892;2023-06-22T13:08:07;34.20;86.50
5200;DHT22;2619;47.868;11.892;2023-06-22T13:10:33;33.90;89.60
5200;DHT22;2619;47.868;11.892;2023-06-22T13:12:59;34.10;89.40
5200;DHT22;2619;47.868;11.892;2023-06-22T13:15:29;34.50;88.00
5200;DHT22;2619;47.868;11.892;2023-06-22T13:17:55;34.80;86.50
5200;DHT22;2619;47.868;11.892;2023-06-22T13:20:21;35.00;86.10
5200;DHT22;2619;47.868;11.892;2023-06-22T13:22:46;35.50;85.10
5200;DHT22;2619;47.868;11.892;2023-06-22T13:25:12;35.90;84.10
5200;DHT22;2619;47.868;11.892;2023-06-22T13:27:41;36.20;82.60
5200;DHT22;2619;47.868;11.892;2023-06-22T13:30:08;36.60;82.20
5200;DHT22;2619;47.868;11.892;2023-06-22T13:32:34;36.60;81.60
5200;DHT22;2619;47.868;11.892;2023-06-22T13:34:59;36.80;79.40
5200;DHT22;2619;47.868;11.892;2023-06-22T13:37:26;36.60;81.30
5200;DHT22;2619;47.868;11.892;2023-06-22T13:39:51;36.60;79.40
5200;DHT22;2619;47.868;11.892;2023-06-22T13:42:17;36.60;81.90
5200;DHT22;2619;47.868;11.892;2023-06-22T13:44:43;36.50;82.30
5200;DHT22;2619;47.868;11.892;2023-06-22T13:47:08;36.40;80.80
5200;DHT22;2619;47.868;11.892;2023-06-22T13:49:34;36.40;81.80
5200;DHT22;2619;47.868;11.892;2023-06-22T13:52:00;36.50;80.80
5200;DHT22;2619;47.868;11.892;2023-06-22T13:54:26;36.70;81.70
5200;DHT22;2619;47.868;11.892;2023-06-22T13:56:51;37.10;80.80
5200;DHT22;2619;47.868;11.892;2023-06-22T13:59:17;37.10;78.10
5200;DHT22;2619;47.868;11.892;2023-06-22T14:01:43;37.20;80.00
5200;DHT22;2619;47.868;11.892;2023-06-22T14:04:09;37.20;76.90
5200;DHT22;2619;47.868;11.892;2023-06-22T14:06:35;37.20;76.40
5200;DHT22;2619;47.868;11.892;2023-06-22T14:09:00;37.20;75.80
5200;DHT22;2619;47.868;11.892;2023-06-22T14:11:26;37.10;76.70
5200;DHT22;2619;47.868;11.892;2023-06-22T14:13:52;36.90;77.20
5200;DHT22;2619;47.868;11.892;2023-06-22T14:16:17;36.80;77.60
5200;DHT22;2619;47.868;11.892;2023-06-22T14:18:44;36.70;76.30
5200;DHT22;2619;47.868;11.892;2023-06-22T14:21:10;36.60;75.00
5200;DHT22;2619;47.868;11.892;2023-06-22T14:23:36;36.50;78.30
5200;DHT22;2619;47.868;11.892;2023-06-22T14:26:03;36.70;75.50
5200;DHT22;2619;47.868;11.892;2023-06-22T14:28:28;36.70;75.00
5200;DHT22;2619;47.868;11.892;2023-06-22T14:30:54;36.80;77.00
5200;DHT22;2619;47.868;11.892;2023-06-22T14:33:20;36.80;74.90
5200;DHT22;2619;47.868;11.892;2023-06-22T14:35:45;36.80;75.80
5200;DHT22;2619;47.868;11.892;2023-06-22T14:38:11;36.70;75.80
5200;DHT22;2619;47.868;11.892;2023-06-22T14:40:36;36.60;75.50
5200;DHT22;2619;47.868;11.892;2023-06-22T14:43:02;36.50;78.70
5200;DHT22;2619;47.868;11.892;2023-06-22T14:45:27;35.90;79.60
5200;DHT22;2619;47.868;11.892;2023-06-22T14:47:53;35.80;79.00
5200;DHT22;2619;47.868;11.892;2023-06-22T14:50:18;36.00;79.40
5200;DHT22;2619;47.868;11.892;2023-06-22T14:52:44;36.00;77.60
5200;DHT22;2619;47.868;11.892;2023-06-22T14:55:10;35.80;78.50
5200;DHT22;2619;47.868;11.892;2023-06-22T14:57:35;35.80;79.20
5200;DHT22;2619;47.868;11.892;2023-06-22T15:00:01;35.90;79.40
5200;DHT22;2619;47.868;11.892;2023-06-22T15:02:27;36.00;78.30
5200;DHT22;2619;47.868;11.892;2023-06-22T15:04:53;35.90;77.80
5200;DHT22;2619;47.868;11.892;2023-06-22T15:07:19;35.90;77.50
5200;DHT22;2619;47.868;11.892;2023-06-22T15:09:45;35.90;77.10
5200;DHT22;2619;47.868;11.892;2023-06-22T15:12:11;35.90;77.70
5200;DHT22;2619;47.868;11.892;2023-06-22T15:14:46;35.60;77.80
5200;DHT22;2619;47.868;11.892;2023-06-22T15:17:11;35.60;76.40
5200;DHT22;2619;47.868;11.892;2023-06-22T15:19:39;35.60;76.00
5200;DHT22;2619;47.868;11.892;2023-06-22T15:22:05;35.50;75.90
5200;DHT22;2619;47.868;11.892;2023-06-22T15:24:32;35.50;77.20
5200;DHT22;2619;47.868;11.892;2023-06-22T15:26:58;35.60;76.00
5200;DHT22;2619;47.868;11.892;2023-06-22T15:29:24;35.70;77.20
5200;DHT22;2619;47.868;11.892;2023-06-22T15:31:50;35.50;77.70
5200;DHT22;2619;47.868;11.892;2023-06-22T15:34:16;35.30;76.50
5200;DHT22;2619;47.868;11.892;2023-06-22T15:36:41;35.20;76.40
5200;DHT22;2619;47.868;11.892;2023-06-22T15:39:07;34.90;77.20
5200;DHT22;2619;47.868;11.892;2023-06-22T15:41:32;34.80;76.30
5200;DHT22;2619;47.868;11.892;2023-06-22T15:43:58;34.50;76.70
5200;DHT22;2619;47.868;11.892;2023-06-22T15:46:24;34.40;77.70
5200;DHT22;2619;47.868;11.892;2023-06-22T15:48:49;34.40;77.60